Weather at Nantes Atlantique Airport

Public forecast

Using degrees Celsius for public forecast. Weather courtesy of forecast.io.

Current aviation weather report (METAR) for Nantes Atlantique Airport

Retrieved 2021/09/28 13:00 UTC (19 minutes ago):

LFRS 281300Z AUTO 24012KT 210V270 9999 FEW036 21/10 Q1020 TEMPO BKN040TCU

Aviation forecast (TAF) for Nantes Atlantique Airport

Retrieved 2021/09/28 12:21 UTC (58 minutes ago):

TAF LFRS 281100Z 2812/2918 20010KT 9999 BKN035 PROB40 TEMPO 2812/2817 -SHRA BKN040TCU BECMG 2820/2822 23015G25KT 4500 -RA TEMPO 2822/2902 23020G35KT 2500 RA BKN012 BKN020CB FM290200 30010KT 9999 SCT020 SCT040 PROB30 TEMPO 2902/2904 4500 SHRA BKN020CB